sensor_id;sensor_type;location;lat;lon;timestamp;P1;durP1;ratioP1;P2;durP2;ratioP2
4585;SDS011;2305;50.118;8.952;2023-08-30T00:00:36;3.63;;;2.10;;
4585;SDS011;2305;50.118;8.952;2023-08-30T00:03:06;6.83;;;2.23;;
4585;SDS011;2305;50.118;8.952;2023-08-30T00:05:38;2.73;;;2.27;;
4585;SDS011;2305;50.118;8.952;2023-08-30T00:08:06;6.53;;;2.30;;
4585;SDS011;2305;50.118;8.952;2023-08-30T00:10:40;4.47;;;2.70;;
4585;SDS011;2305;50.118;8.952;2023-08-30T00:13:09;3.00;;;1.90;;
4585;SDS011;2305;50.118;8.952;2023-08-30T00:15:37;5.57;;;2.80;;
4585;SDS011;2305;50.118;8.952;2023-08-30T00:18:08;5.20;;;2.73;;
4585;SDS011;2305;50.118;8.952;2023-08-30T00:20:39;7.77;;;2.93;;
4585;SDS011;2305;50.118;8.952;2023-08-30T00:23:08;8.20;;;2.60;;
4585;SDS011;2305;50.118;8.952;2023-08-30T00:25:36;4.97;;;2.47;;
4585;SDS011;2305;50.118;8.952;2023-08-30T00:28:05;3.30;;;2.13;;
4585;SDS011;2305;50.118;8.952;2023-08-30T00:30:34;3.40;;;2.50;;
4585;SDS011;2305;50.118;8.952;2023-08-30T00:33:03;4.87;;;2.17;;
4585;SDS011;2305;50.118;8.952;2023-08-30T00:35:31;4.37;;;2.10;;
4585;SDS011;2305;50.118;8.952;2023-08-30T00:38:00;3.50;;;2.57;;
4585;SDS011;2305;50.118;8.952;2023-08-30T00:40:28;4.93;;;2.60;;
4585;SDS011;2305;50.118;8.952;2023-08-30T00:42:57;3.30;;;2.40;;
4585;SDS011;2305;50.118;8.952;2023-08-30T00:45:26;7.57;;;2.90;;
4585;SDS011;2305;50.118;8.952;2023-08-30T00:47:56;6.00;;;2.20;;
4585;SDS011;2305;50.118;8.952;2023-08-30T00:50:25;8.70;;;2.53;;
4585;SDS011;2305;50.118;8.952;2023-08-30T00:52:53;4.10;;;2.37;;
4585;SDS011;2305;50.118;8.952;2023-08-30T00:55:21;3.90;;;2.70;;
4585;SDS011;2305;50.118;8.952;2023-08-30T00:57:51;4.23;;;2.60;;
4585;SDS011;2305;50.118;8.952;2023-08-30T01:00:28;8.37;;;2.47;;
4585;SDS011;2305;50.118;8.952;2023-08-30T01:02:58;5.13;;;2.30;;
4585;SDS011;2305;50.118;8.952;2023-08-30T01:05:27;3.43;;;2.30;;
4585;SDS011;2305;50.118;8.952;2023-08-30T01:07:56;5.37;;;2.30;;
4585;SDS011;2305;50.118;8.952;2023-08-30T01:10:25;3.43;;;2.53;;
4585;SDS011;2305;50.118;8.952;2023-08-30T01:12:58;6.20;;;2.33;;
4585;SDS011;2305;50.118;8.952;2023-08-30T01:15:35;9.63;;;2.50;;
4585;SDS011;2305;50.118;8.952;2023-08-30T01:18:06;5.67;;;2.40;;
4585;SDS011;2305;50.118;8.952;2023-08-30T01:20:40;4.80;;;2.43;;
4585;SDS011;2305;50.118;8.952;2023-08-30T01:23:14;6.47;;;2.77;;
4585;SDS011;2305;50.118;8.952;2023-08-30T01:25:54;3.87;;;2.47;;
4585;SDS011;2305;50.118;8.952;2023-08-30T01:28:33;3.93;;;2.13;;
4585;SDS011;2305;50.118;8.952;2023-08-30T01:31:04;3.33;;;1.90;;
4585;SDS011;2305;50.118;8.952;2023-08-30T01:33:35;2.83;;;1.83;;
4585;SDS011;2305;50.118;8.952;2023-08-30T01:36:08;2.40;;;2.17;;
4585;SDS011;2305;50.118;8.952;2023-08-30T01:38:37;3.53;;;1.97;;
4585;SDS011;2305;50.118;8.952;2023-08-30T01:41:07;5.23;;;2.73;;
4585;SDS011;2305;50.118;8.952;2023-08-30T01:43:37;5.33;;;2.23;;
4585;SDS011;2305;50.118;8.952;2023-08-30T01:46:06;10.97;;;2.63;;
4585;SDS011;2305;50.118;8.952;2023-08-30T01:48:37;4.30;;;2.57;;
4585;SDS011;2305;50.118;8.952;2023-08-30T01:51:09;3.20;;;2.33;;
4585;SDS011;2305;50.118;8.952;2023-08-30T01:53:38;4.60;;;2.60;;
4585;SDS011;2305;50.118;8.952;2023-08-30T01:56:07;7.50;;;2.70;;
4585;SDS011;2305;50.118;8.952;2023-08-30T01:58:35;3.00;;;2.63;;
4585;SDS011;2305;50.118;8.952;2023-08-30T02:01:05;4.50;;;2.50;;
4585;SDS011;2305;50.118;8.952;2023-08-30T02:03:33;5.73;;;2.33;;
4585;SDS011;2305;50.118;8.952;2023-08-30T02:06:02;6.17;;;2.50;;
4585;SDS011;2305;50.118;8.952;2023-08-30T02:08:40;5.13;;;2.20;;
4585;SDS011;2305;50.118;8.952;2023-08-30T02:11:13;4.03;;;2.37;;
4585;SDS011;2305;50.118;8.952;2023-08-30T02:13:47;5.07;;;2.47;;
4585;SDS011;2305;50.118;8.952;2023-08-30T02:16:21;2.87;;;2.17;;
4585;SDS011;2305;50.118;8.952;2023-08-30T02:18:51;3.63;;;2.80;;
4585;SDS011;2305;50.118;8.952;2023-08-30T02:21:22;3.00;;;2.37;;
4585;SDS011;2305;50.118;8.952;2023-08-30T02:23:51;2.80;;;2.50;;
4585;SDS011;2305;50.118;8.952;2023-08-30T02:26:19;6.70;;;3.30;;
4585;SDS011;2305;50.118;8.952;2023-08-30T02:28:48;4.00;;;2.83;;
4585;SDS011;2305;50.118;8.952;2023-08-30T02:31:21;3.57;;;2.50;;
4585;SDS011;2305;50.118;8.952;2023-08-30T02:33:49;5.33;;;3.07;;
4585;SDS011;2305;50.118;8.952;2023-08-30T02:36:17;4.70;;;2.90;;
4585;SDS011;2305;50.118;8.952;2023-08-30T02:38:46;2.93;;;2.63;;
4585;SDS011;2305;50.118;8.952;2023-08-30T02:41:14;6.83;;;2.90;;
4585;SDS011;2305;50.118;8.952;2023-08-30T02:43:42;5.40;;;3.20;;
4585;SDS011;2305;50.118;8.952;2023-08-30T02:46:11;4.47;;;3.40;;
4585;SDS011;2305;50.118;8.952;2023-08-30T02:48:41;7.63;;;3.77;;
4585;SDS011;2305;50.118;8.952;2023-08-30T02:51:09;8.70;;;4.47;;
4585;SDS011;2305;50.118;8.952;2023-08-30T02:53:40;9.70;;;4.70;;
4585;SDS011;2305;50.118;8.952;2023-08-30T02:56:08;7.77;;;4.70;;
4585;SDS011;2305;50.118;8.952;2023-08-30T02:58:38;9.53;;;5.50;;
4585;SDS011;2305;50.118;8.952;2023-08-30T03:01:06;9.43;;;6.40;;
4585;SDS011;2305;50.118;8.952;2023-08-30T03:03:38;10.03;;;5.90;;
4585;SDS011;2305;50.118;8.952;2023-08-30T03:06:08;7.83;;;4.73;;
4585;SDS011;2305;50.118;8.952;2023-08-30T03:08:38;7.37;;;5.00;;
4585;SDS011;2305;50.118;8.952;2023-08-30T03:11:07;12.57;;;4.47;;
4585;SDS011;2305;50.118;8.952;2023-08-30T03:13:40;10.60;;;4.43;;
4585;SDS011;2305;50.118;8.952;2023-08-30T03:16:16;14.33;;;4.20;;
4585;SDS011;2305;50.118;8.952;2023-08-30T03:18:52;10.63;;;4.40;;
4585;SDS011;2305;50.118;8.952;2023-08-30T03:21:23;5.60;;;3.57;;
4585;SDS011;2305;50.118;8.952;2023-08-30T03:23:57;5.97;;;3.37;;
4585;SDS011;2305;50.118;8.952;2023-08-30T03:26:25;5.03;;;3.20;;
4585;SDS011;2305;50.118;8.952;2023-08-30T03:28:56;3.00;;;2.47;;
4585;SDS011;2305;50.118;8.952;2023-08-30T03:31:30;9.10;;;3.03;;
4585;SDS011;2305;50.118;8.952;2023-08-30T03:33:59;4.40;;;2.97;;
4585;SDS011;2305;50.118;8.952;2023-08-30T03:36:30;7.40;;;3.20;;
4585;SDS011;2305;50.118;8.952;2023-08-30T03:38:58;4.00;;;3.13;;
4585;SDS011;2305;50.118;8.952;2023-08-30T03:41:28;4.83;;;3.80;;
4585;SDS011;2305;50.118;8.952;2023-08-30T03:43:56;7.23;;;3.63;;
4585;SDS011;2305;50.118;8.952;2023-08-30T03:46:28;6.30;;;3.87;;
4585;SDS011;2305;50.118;8.952;2023-08-30T03:48:57;5.87;;;3.80;;
4585;SDS011;2305;50.118;8.952;2023-08-30T03:51:26;5.50;;;3.83;;
4585;SDS011;2305;50.118;8.952;2023-08-30T03:53:55;4.50;;;3.40;;
4585;SDS011;2305;50.118;8.952;2023-08-30T03:56:24;13.43;;;4.33;;
4585;SDS011;2305;50.118;8.952;2023-08-30T03:58:53;11.70;;;4.10;;
4585;SDS011;2305;50.118;8.952;2023-08-30T04:01:21;4.37;;;3.17;;
4585;SDS011;2305;50.118;8.952;2023-08-30T04:03:50;5.90;;;3.20;;
4585;SDS011;2305;50.118;8.952;2023-08-30T04:06:19;4.80;;;3.30;;
4585;SDS011;2305;50.118;8.952;2023-08-30T04:08:48;8.87;;;3.70;;
4585;SDS011;2305;50.118;8.952;2023-08-30T04:11:18;4.73;;;3.30;;
4585;SDS011;2305;50.118;8.952;2023-08-30T04:13:46;9.90;;;3.40;;
4585;SDS011;2305;50.118;8.952;2023-08-30T04:16:14;4.93;;;3.47;;
4585;SDS011;2305;50.118;8.952;2023-08-30T04:18:43;6.90;;;3.67;;
4585;SDS011;2305;50.118;8.952;2023-08-30T04:21:11;4.73;;;3.47;;
4585;SDS011;2305;50.118;8.952;2023-08-30T04:23:40;5.83;;;3.67;;
4585;SDS011;2305;50.118;8.952;2023-08-30T04:26:08;5.53;;;3.70;;
4585;SDS011;2305;50.118;8.952;2023-08-30T04:28:37;5.47;;;3.40;;
4585;SDS011;2305;50.118;8.952;2023-08-30T04:31:05;10.03;;;4.13;;
4585;SDS011;2305;50.118;8.952;2023-08-30T04:33:35;4.60;;;3.30;;
4585;SDS011;2305;50.118;8.952;2023-08-30T04:36:04;5.60;;;2.63;;
4585;SDS011;2305;50.118;8.952;2023-08-30T04:38:32;8.50;;;3.60;;
4585;SDS011;2305;50.118;8.952;2023-08-30T04:41:11;6.57;;;4.47;;
4585;SDS011;2305;50.118;8.952;2023-08-30T04:43:41;6.40;;;4.37;;
4585;SDS011;2305;50.118;8.952;2023-08-30T04:46:12;6.97;;;4.37;;
4585;SDS011;2305;50.118;8.952;2023-08-30T04:48:45;6.80;;;4.17;;
4585;SDS011;2305;50.118;8.952;2023-08-30T04:51:16;4.87;;;3.80;;
4585;SDS011;2305;50.118;8.952;2023-08-30T04:53:44;5.40;;;4.20;;
4585;SDS011;2305;50.118;8.952;2023-08-30T04:56:13;6.73;;;4.27;;
4585;SDS011;2305;50.118;8.952;2023-08-30T04:58:43;6.67;;;5.00;;
4585;SDS011;2305;50.118;8.952;2023-08-30T05:01:11;9.60;;;5.20;;
4585;SDS011;2305;50.118;8.952;2023-08-30T05:03:45;5.53;;;4.23;;
4585;SDS011;2305;50.118;8.952;2023-08-30T05:06:14;6.97;;;5.33;;
4585;SDS011;2305;50.118;8.952;2023-08-30T05:08:43;9.27;;;5.53;;
4585;SDS011;2305;50.118;8.952;2023-08-30T05:11:11;7.27;;;4.70;;
4585;SDS011;2305;50.118;8.952;2023-08-30T05:13:44;5.47;;;4.07;;
4585;SDS011;2305;50.118;8.952;2023-08-30T05:16:12;10.30;;;4.30;;
4585;SDS011;2305;50.118;8.952;2023-08-30T05:18:40;6.13;;;4.13;;
4585;SDS011;2305;50.118;8.952;2023-08-30T05:21:09;6.97;;;4.07;;
4585;SDS011;2305;50.118;8.952;2023-08-30T05:23:37;6.77;;;4.33;;
4585;SDS011;2305;50.118;8.952;2023-08-30T05:26:08;5.83;;;4.80;;
4585;SDS011;2305;50.118;8.952;2023-08-30T05:28:36;6.60;;;4.03;;
4585;SDS011;2305;50.118;8.952;2023-08-30T05:31:08;6.83;;;4.20;;
4585;SDS011;2305;50.118;8.952;2023-08-30T05:33:54;4.90;;;3.80;;
4585;SDS011;2305;50.118;8.952;2023-08-30T05:36:42;4.93;;;3.70;;
4585;SDS011;2305;50.118;8.952;2023-08-30T05:39:24;8.70;;;4.63;;
4585;SDS011;2305;50.118;8.952;2023-08-30T05:41:55;8.57;;;4.63;;
4585;SDS011;2305;50.118;8.952;2023-08-30T05:44:26;13.10;;;4.30;;
4585;SDS011;2305;50.118;8.952;2023-08-30T05:46:55;6.30;;;4.10;;
4585;SDS011;2305;50.118;8.952;2023-08-30T05:49:23;7.83;;;4.50;;
4585;SDS011;2305;50.118;8.952;2023-08-30T05:51:52;6.90;;;4.50;;
4585;SDS011;2305;50.118;8.952;2023-08-30T05:54:23;16.63;;;5.87;;
4585;SDS011;2305;50.118;8.952;2023-08-30T05:56:53;6.40;;;4.90;;
4585;SDS011;2305;50.118;8.952;2023-08-30T05:59:21;7.30;;;5.17;;
4585;SDS011;2305;50.118;8.952;2023-08-30T06:01:49;6.13;;;4.07;;
4585;SDS011;2305;50.118;8.952;2023-08-30T06:04:19;5.50;;;4.70;;
4585;SDS011;2305;50.118;8.952;2023-08-30T06:06:47;5.90;;;4.13;;
4585;SDS011;2305;50.118;8.952;2023-08-30T06:09:15;6.03;;;3.90;;
4585;SDS011;2305;50.118;8.952;2023-08-30T06:11:44;10.20;;;4.33;;
4585;SDS011;2305;50.118;8.952;2023-08-30T06:14:13;5.47;;;4.10;;
4585;SDS011;2305;50.118;8.952;2023-08-30T06:16:41;6.23;;;4.70;;
4585;SDS011;2305;50.118;8.952;2023-08-30T06:19:11;5.50;;;4.10;;
4585;SDS011;2305;50.118;8.952;2023-08-30T06:21:40;9.47;;;4.80;;
4585;SDS011;2305;50.118;8.952;2023-08-30T06:24:08;4.80;;;3.87;;
4585;SDS011;2305;50.118;8.952;2023-08-30T06:26:37;9.50;;;5.07;;
4585;SDS011;2305;50.118;8.952;2023-08-30T06:29:05;8.70;;;5.90;;
4585;SDS011;2305;50.118;8.952;2023-08-30T06:31:33;6.47;;;4.57;;
4585;SDS011;2305;50.118;8.952;2023-08-30T06:34:01;7.73;;;5.10;;
4585;SDS011;2305;50.118;8.952;2023-08-30T06:36:29;5.70;;;4.30;;
4585;SDS011;2305;50.118;8.952;2023-08-30T06:38:59;9.40;;;5.13;;
4585;SDS011;2305;50.118;8.952;2023-08-30T06:41:27;6.67;;;4.37;;
4585;SDS011;2305;50.118;8.952;2023-08-30T06:43:55;11.30;;;4.53;;
4585;SDS011;2305;50.118;8.952;2023-08-30T06:46:24;5.90;;;4.07;;
4585;SDS011;2305;50.118;8.952;2023-08-30T06:48:52;7.97;;;4.80;;
4585;SDS011;2305;50.118;8.952;2023-08-30T06:51:23;5.03;;;4.47;;
4585;SDS011;2305;50.118;8.952;2023-08-30T06:53:51;6.40;;;3.83;;
4585;SDS011;2305;50.118;8.952;2023-08-30T06:56:26;6.70;;;4.43;;
4585;SDS011;2305;50.118;8.952;2023-08-30T06:58:54;8.70;;;5.20;;
4585;SDS011;2305;50.118;8.952;2023-08-30T07:01:22;10.30;;;5.07;;
4585;SDS011;2305;50.118;8.952;2023-08-30T07:03:51;6.83;;;5.17;;
4585;SDS011;2305;50.118;8.952;2023-08-30T07:06:19;4.80;;;4.30;;
4585;SDS011;2305;50.118;8.952;2023-08-30T07:08:47;6.87;;;5.00;;
4585;SDS011;2305;50.118;8.952;2023-08-30T07:11:15;11.63;;;5.30;;
4585;SDS011;2305;50.118;8.952;2023-08-30T07:14:01;7.10;;;4.30;;
4585;SDS011;2305;50.118;8.952;2023-08-30T07:16:30;10.03;;;4.67;;
4585;SDS011;2305;50.118;8.952;2023-08-30T07:18:59;8.93;;;4.87;;
4585;SDS011;2305;50.118;8.952;2023-08-30T07:21:28;17.53;;;5.20;;
4585;SDS011;2305;50.118;8.952;2023-08-30T07:23:56;8.63;;;4.17;;
4585;SDS011;2305;50.118;8.952;2023-08-30T07:26:24;15.67;;;5.23;;
4585;SDS011;2305;50.118;8.952;2023-08-30T07:28:53;7.73;;;5.40;;
4585;SDS011;2305;50.118;8.952;2023-08-30T07:31:22;8.90;;;5.07;;
4585;SDS011;2305;50.118;8.952;2023-08-30T07:33:51;6.43;;;4.30;;
4585;SDS011;2305;50.118;8.952;2023-08-30T07:36:19;7.33;;;4.70;;
4585;SDS011;2305;50.118;8.952;2023-08-30T07:38:56;11.23;;;4.87;;
4585;SDS011;2305;50.118;8.952;2023-08-30T07:41:27;5.20;;;4.13;;
4585;SDS011;2305;50.118;8.952;2023-08-30T07:43:55;8.23;;;5.40;;
4585;SDS011;2305;50.118;8.952;2023-08-30T07:46:24;7.57;;;4.63;;
4585;SDS011;2305;50.118;8.952;2023-08-30T07:48:55;7.07;;;5.17;;
4585;SDS011;2305;50.118;8.952;2023-08-30T07:51:23;10.50;;;5.53;;
4585;SDS011;2305;50.118;8.952;2023-08-30T07:53:52;8.60;;;4.77;;
4585;SDS011;2305;50.118;8.952;2023-08-30T07:56:20;15.00;;;5.00;;
4585;SDS011;2305;50.118;8.952;2023-08-30T07:58:48;6.53;;;5.13;;
4585;SDS011;2305;50.118;8.952;2023-08-30T08:01:17;7.70;;;5.33;;
4585;SDS011;2305;50.118;8.952;2023-08-30T08:03:46;12.53;;;6.33;;
4585;SDS011;2305;50.118;8.952;2023-08-30T08:06:31;12.37;;;6.10;;
4585;SDS011;2305;50.118;8.952;2023-08-30T08:09:03;18.07;;;6.10;;
4585;SDS011;2305;50.118;8.952;2023-08-30T08:11:33;11.20;;;6.57;;
4585;SDS011;2305;50.118;8.952;2023-08-30T08:14:02;13.53;;;7.00;;
4585;SDS011;2305;50.118;8.952;2023-08-30T08:16:30;11.70;;;6.37;;
4585;SDS011;2305;50.118;8.952;2023-08-30T08:19:00;9.43;;;6.40;;
4585;SDS011;2305;50.118;8.952;2023-08-30T08:21:29;9.60;;;5.43;;
4585;SDS011;2305;50.118;8.952;2023-08-30T08:23:57;10.13;;;6.73;;
4585;SDS011;2305;50.118;8.952;2023-08-30T08:26:28;8.00;;;6.10;;
4585;SDS011;2305;50.118;8.952;2023-08-30T08:28:59;8.27;;;6.10;;
4585;SDS011;2305;50.118;8.952;2023-08-30T08:31:27;11.10;;;6.37;;
4585;SDS011;2305;50.118;8.952;2023-08-30T08:34:07;10.43;;;7.30;;
4585;SDS011;2305;50.118;8.952;2023-08-30T08:36:37;8.77;;;6.80;;
4585;SDS011;2305;50.118;8.952;2023-08-30T08:39:05;8.73;;;5.70;;
4585;SDS011;2305;50.118;8.952;2023-08-30T08:41:38;10.30;;;7.50;;
4585;SDS011;2305;50.118;8.952;2023-08-30T08:44:08;7.60;;;6.00;;
4585;SDS011;2305;50.118;8.952;2023-08-30T08:46:38;9.80;;;6.50;;
4585;SDS011;2305;50.118;8.952;2023-08-30T08:49:10;11.80;;;7.53;;
4585;SDS011;2305;50.118;8.952;2023-08-30T08:51:40;8.10;;;6.40;;
4585;SDS011;2305;50.118;8.952;2023-08-30T08:54:10;9.27;;;5.90;;
4585;SDS011;2305;50.118;8.952;2023-08-30T08:56:39;8.77;;;6.07;;
4585;SDS011;2305;50.118;8.952;2023-08-30T08:59:08;8.70;;;6.20;;
4585;SDS011;2305;50.118;8.952;2023-08-30T09:01:36;9.43;;;6.50;;
4585;SDS011;2305;50.118;8.952;2023-08-30T09:04:08;9.57;;;6.60;;
4585;SDS011;2305;50.118;8.952;2023-08-30T09:06:40;10.27;;;7.60;;
4585;SDS011;2305;50.118;8.952;2023-08-30T09:09:10;11.03;;;7.00;;
4585;SDS011;2305;50.118;8.952;2023-08-30T09:11:39;9.20;;;6.20;;
4585;SDS011;2305;50.118;8.952;2023-08-30T09:14:17;13.33;;;6.67;;
4585;SDS011;2305;50.118;8.952;2023-08-30T09:16:53;11.60;;;7.00;;
4585;SDS011;2305;50.118;8.952;2023-08-30T09:19:24;8.50;;;6.47;;
4585;SDS011;2305;50.118;8.952;2023-08-30T09:21:52;11.23;;;6.77;;
4585;SDS011;2305;50.118;8.952;2023-08-30T09:24:20;8.87;;;6.33;;
4585;SDS011;2305;50.118;8.952;2023-08-30T09:26:49;8.03;;;5.93;;
4585;SDS011;2305;50.118;8.952;2023-08-30T09:29:21;11.50;;;6.13;;
4585;SDS011;2305;50.118;8.952;2023-08-30T09:31:50;7.90;;;5.70;;
4585;SDS011;2305;50.118;8.952;2023-08-30T09:34:21;8.00;;;5.60;;
4585;SDS011;2305;50.118;8.952;2023-08-30T09:36:52;12.33;;;6.20;;
4585;SDS011;2305;50.118;8.952;2023-08-30T09:39:22;6.83;;;5.50;;
4585;SDS011;2305;50.118;8.952;2023-08-30T09:41:50;10.50;;;6.10;;
4585;SDS011;2305;50.118;8.952;2023-08-30T09:44:19;8.30;;;5.83;;
4585;SDS011;2305;50.118;8.952;2023-08-30T09:46:50;21.90;;;7.33;;
4585;SDS011;2305;50.118;8.952;2023-08-30T09:49:20;22.77;;;6.67;;
4585;SDS011;2305;50.118;8.952;2023-08-30T09:51:51;11.00;;;5.43;;
4585;SDS011;2305;50.118;8.952;2023-08-30T09:54:20;14.93;;;6.40;;
4585;SDS011;2305;50.118;8.952;2023-08-30T09:56:52;11.50;;;6.07;;
4585;SDS011;2305;50.118;8.952;2023-08-30T09:59:26;10.07;;;6.10;;
4585;SDS011;2305;50.118;8.952;2023-08-30T10:01:56;5.97;;;5.03;;
4585;SDS011;2305;50.118;8.952;2023-08-30T10:04:27;7.37;;;5.10;;
4585;SDS011;2305;50.118;8.952;2023-08-30T10:06:58;8.30;;;5.33;;
4585;SDS011;2305;50.118;8.952;2023-08-30T10:09:27;6.00;;;4.47;;
4585;SDS011;2305;50.118;8.952;2023-08-30T10:11:58;5.67;;;4.97;;
4585;SDS011;2305;50.118;8.952;2023-08-30T10:14:29;11.30;;;4.90;;
4585;SDS011;2305;50.118;8.952;2023-08-30T10:16:59;11.17;;;5.20;;
4585;SDS011;2305;50.118;8.952;2023-08-30T10:19:31;11.50;;;5.90;;
4585;SDS011;2305;50.118;8.952;2023-08-30T10:22:02;7.30;;;5.07;;
4585;SDS011;2305;50.118;8.952;2023-08-30T10:24:32;6.03;;;4.13;;
4585;SDS011;2305;50.118;8.952;2023-08-30T10:27:26;9.67;;;5.10;;
4585;SDS011;2305;50.118;8.952;2023-08-30T10:29:55;6.00;;;4.90;;
4585;SDS011;2305;50.118;8.952;2023-08-30T10:32:23;6.10;;;3.77;;
4585;SDS011;2305;50.118;8.952;2023-08-30T10:34:52;9.73;;;4.73;;
4585;SDS011;2305;50.118;8.952;2023-08-30T10:37:23;7.90;;;3.87;;
4585;SDS011;2305;50.118;8.952;2023-08-30T10:39:58;4.57;;;3.40;;
4585;SDS011;2305;50.118;8.952;2023-08-30T10:42:27;4.10;;;3.23;;
4585;SDS011;2305;50.118;8.952;2023-08-30T10:44:58;3.97;;;3.40;;
4585;SDS011;2305;50.118;8.952;2023-08-30T10:47:31;4.83;;;2.87;;
4585;SDS011;2305;50.118;8.952;2023-08-30T10:50:04;3.00;;;2.70;;
4585;SDS011;2305;50.118;8.952;2023-08-30T10:52:35;3.63;;;2.93;;
4585;SDS011;2305;50.118;8.952;2023-08-30T10:55:06;5.23;;;3.20;;
4585;SDS011;2305;50.118;8.952;2023-08-30T10:57:36;4.07;;;2.90;;
4585;SDS011;2305;50.118;8.952;2023-08-30T11:00:07;6.40;;;3.40;;
4585;SDS011;2305;50.118;8.952;2023-08-30T11:02:37;5.90;;;3.40;;
4585;SDS011;2305;50.118;8.952;2023-08-30T11:05:06;7.67;;;3.77;;
4585;SDS011;2305;50.118;8.952;2023-08-30T11:07:37;12.30;;;3.53;;
4585;SDS011;2305;50.118;8.952;2023-08-30T11:10:06;3.10;;;2.67;;
4585;SDS011;2305;50.118;8.952;2023-08-30T11:12:35;4.97;;;2.70;;
4585;SDS011;2305;50.118;8.952;2023-08-30T11:15:04;5.17;;;2.00;;
4585;SDS011;2305;50.118;8.952;2023-08-30T11:17:37;4.70;;;2.47;;
4585;SDS011;2305;50.118;8.952;2023-08-30T11:20:05;3.23;;;2.60;;
4585;SDS011;2305;50.118;8.952;2023-08-30T11:22:36;5.27;;;2.93;;
4585;SDS011;2305;50.118;8.952;2023-08-30T11:25:07;9.80;;;3.40;;
4585;SDS011;2305;50.118;8.952;2023-08-30T11:27:36;4.43;;;2.83;;
4585;SDS011;2305;50.118;8.952;2023-08-30T11:30:05;10.80;;;2.90;;
4585;SDS011;2305;50.118;8.952;2023-08-30T11:32:35;9.33;;;2.50;;
4585;SDS011;2305;50.118;8.952;2023-08-30T11:35:05;10.60;;;2.27;;
4585;SDS011;2305;50.118;8.952;2023-08-30T11:37:34;3.23;;;2.77;;
4585;SDS011;2305;50.118;8.952;2023-08-30T11:40:05;10.53;;;3.50;;
4585;SDS011;2305;50.118;8.952;2023-08-30T11:42:33;4.43;;;2.23;;
4585;SDS011;2305;50.118;8.952;2023-08-30T11:45:02;6.73;;;2.37;;
4585;SDS011;2305;50.118;8.952;2023-08-30T11:47:30;11.20;;;3.00;;
4585;SDS011;2305;50.118;8.952;2023-08-30T11:49:59;3.00;;;2.20;;
4585;SDS011;2305;50.118;8.952;2023-08-30T11:52:30;5.93;;;2.40;;
4585;SDS011;2305;50.118;8.952;2023-08-30T11:55:02;3.60;;;2.50;;
4585;SDS011;2305;50.118;8.952;2023-08-30T11:57:33;4.13;;;2.10;;
4585;SDS011;2305;50.118;8.952;2023-08-30T12:00:09;2.77;;;2.37;;
4585;SDS011;2305;50.118;8.952;2023-08-30T12:02:39;11.07;;;3.10;;
4585;SDS011;2305;50.118;8.952;2023-08-30T12:05:10;13.03;;;3.37;;
4585;SDS011;2305;50.118;8.952;2023-08-30T12:07:39;5.27;;;1.90;;
4585;SDS011;2305;50.118;8.952;2023-08-30T12:10:10;3.53;;;1.70;;
4585;SDS011;2305;50.118;8.952;2023-08-30T12:12:44;3.60;;;2.17;;
4585;SDS011;2305;50.118;8.952;2023-08-30T12:15:13;4.50;;;2.10;;
4585;SDS011;2305;50.118;8.952;2023-08-30T12:17:42;7.63;;;2.53;;
4585;SDS011;2305;50.118;8.952;2023-08-30T12:20:14;3.40;;;1.97;;
4585;SDS011;2305;50.118;8.952;2023-08-30T12:22:47;3.97;;;2.13;;
4585;SDS011;2305;50.118;8.952;2023-08-30T12:25:19;7.23;;;2.50;;
4585;SDS011;2305;50.118;8.952;2023-08-30T12:27:49;5.87;;;2.87;;
4585;SDS011;2305;50.118;8.952;2023-08-30T12:30:18;5.20;;;2.13;;
4585;SDS011;2305;50.118;8.952;2023-08-30T12:32:48;3.40;;;2.43;;
4585;SDS011;2305;50.118;8.952;2023-08-30T12:35:17;6.80;;;2.50;;
4585;SDS011;2305;50.118;8.952;2023-08-30T12:37:48;2.67;;;2.07;;
4585;SDS011;2305;50.118;8.952;2023-08-30T12:40:16;2.20;;;1.73;;
4585;SDS011;2305;50.118;8.952;2023-08-30T12:42:45;3.10;;;2.03;;
4585;SDS011;2305;50.118;8.952;2023-08-30T12:45:13;3.83;;;2.30;;
4585;SDS011;2305;50.118;8.952;2023-08-30T12:47:42;4.87;;;2.37;;
4585;SDS011;2305;50.118;8.952;2023-08-30T12:50:10;9.53;;;2.50;;
4585;SDS011;2305;50.118;8.952;2023-08-30T12:52:38;3.10;;;2.00;;
4585;SDS011;2305;50.118;8.952;2023-08-30T12:55:08;3.30;;;2.07;;
4585;SDS011;2305;50.118;8.952;2023-08-30T12:57:38;6.63;;;2.37;;
4585;SDS011;2305;50.118;8.952;2023-08-30T13:00:09;3.37;;;2.30;;
4585;SDS011;2305;50.118;8.952;2023-08-30T13:02:37;4.70;;;2.27;;
4585;SDS011;2305;50.118;8.952;2023-08-30T13:05:06;4.53;;;2.40;;
4585;SDS011;2305;50.118;8.952;2023-08-30T13:07:34;3.77;;;2.23;;
4585;SDS011;2305;50.118;8.952;2023-08-30T13:10:03;4.53;;;2.47;;
4585;SDS011;2305;50.118;8.952;2023-08-30T13:12:34;5.93;;;2.83;;
4585;SDS011;2305;50.118;8.952;2023-08-30T13:15:02;7.57;;;3.10;;
4585;SDS011;2305;50.118;8.952;2023-08-30T13:17:32;3.13;;;2.37;;
4585;SDS011;2305;50.118;8.952;2023-08-30T13:20:01;6.37;;;2.47;;
4585;SDS011;2305;50.118;8.952;2023-08-30T13:22:31;3.80;;;2.73;;
4585;SDS011;2305;50.118;8.952;2023-08-30T13:25:00;5.67;;;2.40;;
4585;SDS011;2305;50.118;8.952;2023-08-30T13:27:30;9.43;;;2.43;;
4585;SDS011;2305;50.118;8.952;2023-08-30T13:29:58;3.67;;;2.67;;
4585;SDS011;2305;50.118;8.952;2023-08-30T13:32:26;2.57;;;2.33;;
4585;SDS011;2305;50.118;8.952;2023-08-30T13:34:56;6.20;;;2.70;;
4585;SDS011;2305;50.118;8.952;2023-08-30T13:37:24;4.10;;;2.70;;
4585;SDS011;2305;50.118;8.952;2023-08-30T13:39:52;26.30;;;3.43;;
4585;SDS011;2305;50.118;8.952;2023-08-30T13:42:21;8.00;;;3.40;;
4585;SDS011;2305;50.118;8.952;2023-08-30T13:44:52;5.10;;;2.60;;
4585;SDS011;2305;50.118;8.952;2023-08-30T13:47:21;3.20;;;2.73;;
4585;SDS011;2305;50.118;8.952;2023-08-30T13:49:49;16.70;;;3.13;;
4585;SDS011;2305;50.118;8.952;2023-08-30T13:52:18;8.03;;;2.80;;
4585;SDS011;2305;50.118;8.952;2023-08-30T13:54:45;6.23;;;2.97;;
4585;SDS011;2305;50.118;8.952;2023-08-30T13:57:13;5.40;;;3.30;;
4585;SDS011;2305;50.118;8.952;2023-08-30T13:59:41;4.10;;;3.13;;
4585;SDS011;2305;50.118;8.952;2023-08-30T14:02:09;7.63;;;2.80;;
4585;SDS011;2305;50.118;8.952;2023-08-30T14:04:38;4.23;;;2.70;;
4585;SDS011;2305;50.118;8.952;2023-08-30T14:07:09;6.30;;;2.90;;
4585;SDS011;2305;50.118;8.952;2023-08-30T14:09:39;4.70;;;2.70;;
4585;SDS011;2305;50.118;8.952;2023-08-30T14:12:07;7.93;;;2.77;;
4585;SDS011;2305;50.118;8.952;2023-08-30T14:14:36;13.40;;;3.13;;
4585;SDS011;2305;50.118;8.952;2023-08-30T14:17:04;14.03;;;3.03;;
4585;SDS011;2305;50.118;8.952;2023-08-30T14:19:33;4.57;;;2.50;;
4585;SDS011;2305;50.118;8.952;2023-08-30T14:22:02;11.63;;;3.30;;
4585;SDS011;2305;50.118;8.952;2023-08-30T14:24:33;9.03;;;3.30;;
4585;SDS011;2305;50.118;8.952;2023-08-30T14:27:14;3.13;;;2.57;;
4585;SDS011;2305;50.118;8.952;2023-08-30T14:29:42;4.07;;;2.60;;
4585;SDS011;2305;50.118;8.952;2023-08-30T14:32:11;5.90;;;2.67;;
4585;SDS011;2305;50.118;8.952;2023-08-30T14:34:39;4.63;;;2.60;;
4585;SDS011;2305;50.118;8.952;2023-08-30T14:37:07;4.17;;;3.00;;
4585;SDS011;2305;50.118;8.952;2023-08-30T14:39:36;7.33;;;3.30;;
4585;SDS011;2305;50.118;8.952;2023-08-30T14:42:04;5.07;;;2.97;;
4585;SDS011;2305;50.118;8.952;2023-08-30T14:44:34;5.27;;;3.03;;
4585;SDS011;2305;50.118;8.952;2023-08-30T14:47:02;5.73;;;2.80;;
4585;SDS011;2305;50.118;8.952;2023-08-30T14:49:30;3.80;;;2.53;;
4585;SDS011;2305;50.118;8.952;2023-08-30T14:51:59;9.30;;;3.27;;
4585;SDS011;2305;50.118;8.952;2023-08-30T14:54:27;5.97;;;3.63;;
4585;SDS011;2305;50.118;8.952;2023-08-30T14:56:56;9.33;;;2.73;;
4585;SDS011;2305;50.118;8.952;2023-08-30T14:59:24;5.87;;;3.00;;
4585;SDS011;2305;50.118;8.952;2023-08-30T15:01:57;4.53;;;2.50;;
4585;SDS011;2305;50.118;8.952;2023-08-30T15:04:25;4.60;;;2.93;;
4585;SDS011;2305;50.118;8.952;2023-08-30T15:06:54;4.67;;;2.57;;
4585;SDS011;2305;50.118;8.952;2023-08-30T15:09:22;5.00;;;2.67;;
4585;SDS011;2305;50.118;8.952;2023-08-30T15:11:50;3.27;;;2.57;;
4585;SDS011;2305;50.118;8.952;2023-08-30T15:14:18;3.53;;;2.70;;
4585;SDS011;2305;50.118;8.952;2023-08-30T15:16:46;5.87;;;2.30;;
4585;SDS011;2305;50.118;8.952;2023-08-30T15:19:19;6.83;;;3.53;;
4585;SDS011;2305;50.118;8.952;2023-08-30T15:21:47;4.13;;;2.93;;
4585;SDS011;2305;50.118;8.952;2023-08-30T15:24:17;17.40;;;2.93;;
4585;SDS011;2305;50.118;8.952;2023-08-30T15:26:45;3.57;;;2.80;;
4585;SDS011;2305;50.118;8.952;2023-08-30T15:29:14;5.17;;;2.93;;